Terminal Aerodrome Forecast
Issued by NWS

Home | Current Version | Previous Version | Graphics & Text | Print | Product List | Glossary Off
Versions: 1 2 3 4 5 6 7 8 9 10 11 12 13

000
FTUS43 KDDC 131700
TAFHYS
TAF
KHYS 131721Z 1318/1418 36025G35KT P6SM OVC007
      TEMPO 1318/1322 -RA
     FM132200 35025G35KT 6SM -RA OVC010
     FM140500 36015G25KT 3SM -SN BKN015=

USA.gov is the U.S. government's official web portal to all federal, state and local government web resources and services.